createdAt,value
2022-11-19T08:51:13.352Z,-0.75
2022-11-19T08:53:39.774Z,-0.38
2022-11-19T08:56:06.374Z,-0.06
2022-11-19T08:58:32.775Z,0.03
2022-11-19T09:00:59.439Z,0.15
2022-11-19T09:03:25.990Z,0.28
2022-11-19T09:05:53.349Z,0.44
2022-11-19T09:08:19.704Z,0.62
2022-11-19T09:10:46.032Z,0.48
2022-11-19T09:13:12.392Z,0.46
2022-11-19T09:15:40.017Z,0.61
2022-11-19T09:18:06.531Z,0.72
2022-11-19T09:20:32.898Z,0.66
2022-11-19T09:22:59.266Z,0.72
2022-11-19T09:25:25.675Z,0.81
2022-11-19T09:27:51.994Z,0.86
2022-11-19T09:30:18.332Z,1.24
2022-11-19T09:32:44.584Z,1.37
2022-11-19T09:35:10.852Z,1.63
2022-11-19T09:37:37.085Z,1.54
2022-11-19T09:40:04.679Z,1.75
2022-11-19T09:42:30.980Z,1.91
2022-11-19T09:44:57.281Z,2.05
2022-11-19T09:47:23.529Z,2.18
2022-11-19T09:49:49.747Z,2.21
2022-11-19T09:52:16.133Z,2.27
2022-11-19T09:54:42.359Z,2.47
2022-11-19T09:57:08.588Z,2.24
2022-11-19T09:59:34.910Z,2.22
2022-11-19T10:02:01.143Z,2.22
2022-11-19T10:04:27.537Z,2.20
2022-11-19T10:06:53.769Z,2.41
2022-11-19T10:09:19.979Z,2.57
2022-11-19T10:11:46.190Z,2.71
2022-11-19T10:14:12.561Z,2.75
2022-11-19T10:16:38.962Z,2.82
2022-11-19T10:19:05.244Z,2.90
2022-11-19T10:21:31.605Z,3.04
2022-11-19T10:24:00.750Z,3.24
2022-11-19T10:26:26.986Z,3.33
2022-11-19T10:28:53.188Z,3.97
2022-11-19T10:31:19.406Z,3.80
2022-11-19T10:33:45.660Z,3.89
2022-11-19T10:36:11.953Z,4.06
2022-11-19T10:38:38.296Z,4.22
2022-11-19T10:41:04.570Z,4.33
2022-11-19T10:43:30.806Z,4.21
2022-11-19T10:46:00.083Z,4.42
2022-11-19T10:48:26.372Z,4.51
2022-11-19T10:50:52.617Z,4.70
2022-11-19T10:56:18.957Z,4.77
2022-11-19T10:58:45.245Z,4.81
2022-11-19T11:01:11.844Z,5.01
2022-11-19T11:03:38.167Z,5.06
2022-11-19T11:06:06.310Z,5.16
2022-11-19T11:08:32.548Z,5.16
2022-11-19T11:10:58.796Z,5.38
2022-11-19T11:13:54.429Z,5.37
2022-11-19T11:16:20.638Z,5.33
2022-11-19T11:18:47.051Z,5.56
2022-11-19T11:21:13.323Z,5.60
2022-11-19T11:23:39.932Z,5.62
2022-11-19T11:26:06.249Z,5.75
2022-11-19T11:28:32.511Z,5.86
2022-11-19T11:30:58.757Z,5.90
2022-11-19T11:33:25.051Z,5.91
2022-11-19T11:35:51.326Z,5.99
2022-11-19T11:38:17.743Z,6.06
2022-11-19T11:40:44.087Z,6.12
2022-11-19T11:43:10.367Z,6.00
2022-11-19T11:45:36.599Z,6.20
2022-11-19T11:48:02.973Z,6.14
2022-11-19T11:50:29.228Z,6.16
2022-11-19T11:52:55.469Z,6.23
2022-11-19T11:55:21.719Z,6.12
2022-11-19T11:57:47.978Z,6.34
2022-11-19T12:00:14.198Z,6.44
2022-11-19T12:02:40.652Z,6.30
2022-11-19T12:05:06.904Z,6.28
2022-11-19T12:07:33.194Z,6.51
2022-11-19T12:10:03.523Z,6.62
2022-11-19T12:12:29.800Z,6.78
2022-11-19T12:14:56.024Z,6.56
2022-11-19T12:17:22.280Z,6.36
2022-11-19T12:19:48.511Z,6.32
2022-11-19T12:22:14.851Z,6.09
2022-11-19T12:24:41.079Z,6.12
2022-11-19T12:27:07.330Z,5.86
2022-11-19T12:29:33.568Z,5.90
2022-11-19T12:31:59.799Z,5.99
2022-11-19T12:34:26.028Z,6.01
2022-11-19T12:36:56.691Z,5.84
2022-11-19T12:39:23.083Z,5.84
2022-11-19T12:41:49.356Z,5.84
2022-11-19T12:44:15.596Z,5.77
2022-11-19T12:46:41.959Z,5.69
2022-11-19T12:49:08.557Z,5.80
2022-11-19T12:51:35.889Z,5.62
2022-11-19T12:54:02.252Z,5.33
2022-11-19T12:56:28.494Z,5.23
2022-11-19T12:58:54.966Z,5.00
2022-11-19T13:01:21.291Z,4.98
2022-11-19T13:03:47.637Z,4.82
2022-11-19T13:06:17.822Z,4.72
2022-11-19T13:08:44.392Z,4.45
2022-11-19T13:11:12.413Z,4.26
2022-11-19T13:13:38.772Z,4.21
2022-11-19T13:16:05.063Z,4.03
2022-11-19T13:18:31.324Z,3.89
2022-11-19T13:20:57.585Z,3.87
2022-11-19T13:23:23.833Z,3.83
2022-11-19T13:25:50.118Z,3.75
2022-11-19T13:28:16.414Z,3.62
2022-11-19T13:30:42.693Z,3.57
2022-11-19T13:33:09.080Z,3.58
2022-11-19T13:35:35.365Z,3.53
2022-11-19T13:38:01.650Z,3.57
2022-11-19T13:40:27.917Z,3.37
2022-11-19T13:43:31.645Z,3.35
2022-11-19T13:45:59.000Z,3.37
2022-11-19T13:48:25.370Z,3.16
2022-11-19T13:50:52.662Z,3.07
2022-11-19T13:53:19.061Z,3.12
2022-11-19T13:55:45.287Z,3.00
2022-11-19T13:58:11.568Z,3.00
2022-11-19T14:00:37.903Z,2.93
2022-11-19T14:03:04.278Z,2.84
2022-11-19T14:05:30.554Z,2.82
2022-11-19T14:07:57.043Z,2.60
2022-11-19T14:10:23.630Z,2.47
2022-11-19T14:12:49.917Z,2.46
2022-11-19T14:31:37.733Z,1.76
2022-11-19T14:34:04.414Z,1.75
2022-11-19T14:36:30.942Z,1.58
2022-11-19T14:38:57.318Z,1.50
2022-11-19T15:29:47.792Z,0.24
2022-11-19T15:45:36.649Z,-0.03
2022-11-19T16:04:18.639Z,-0.19
2022-11-19T16:17:49.575Z,-0.51
2022-11-19T16:20:25.012Z,-0.42
2022-11-19T16:22:52.034Z,-0.54
2022-11-19T16:35:52.619Z,-0.73
2022-11-19T16:38:28.508Z,-0.88
2022-11-19T16:52:08.562Z,-0.85
2022-11-19T16:54:39.273Z,-0.92
2022-11-19T16:59:37.642Z,-0.88
2022-11-19T17:36:45.100Z,-1.10
2022-11-19T17:39:11.623Z,-1.50
2022-11-19T17:44:24.953Z,-1.41
2022-11-19T17:46:51.370Z,-1.45
2022-11-19T17:49:22.476Z,-1.50
2022-11-19T17:51:48.949Z,-1.48
2022-11-19T17:54:15.350Z,-1.48
2022-11-19T17:56:55.290Z,-1.57
2022-11-19T17:59:44.019Z,-1.62
2022-11-19T18:08:26.916Z,-1.66
2022-11-19T18:10:53.348Z,-1.69
2022-11-19T18:16:01.302Z,-1.71
2022-11-19T18:18:27.742Z,-1.81
2022-11-19T18:21:02.181Z,-1.81
2022-11-19T18:23:29.411Z,-1.79
2022-11-19T18:25:57.407Z,-1.78
2022-11-19T18:28:24.271Z,-1.80
2022-11-19T18:30:52.535Z,-1.86
2022-11-19T18:33:19.996Z,-1.86
2022-11-19T18:35:48.870Z,-1.93
2022-11-19T18:38:17.934Z,-1.88
2022-11-19T18:43:43.626Z,-1.97
2022-11-19T18:46:13.038Z,-1.93
2022-11-19T18:48:41.010Z,-1.99
2022-11-19T18:51:07.461Z,-2.08
2022-11-19T18:53:33.880Z,-2.05
2022-11-19T18:56:00.735Z,-2.05
2022-11-19T18:58:30.161Z,-2.08
2022-11-19T19:00:57.910Z,-2.05
2022-11-19T19:03:24.350Z,-1.92
2022-11-19T19:05:51.096Z,-2.05
2022-11-19T19:08:17.374Z,-2.08
2022-11-19T19:10:43.667Z,-2.08
2022-11-19T19:13:09.956Z,-2.10
2022-11-19T19:15:36.268Z,-2.08
2022-11-19T19:18:07.754Z,-2.13
2022-11-19T19:20:36.880Z,-2.20
2022-11-19T19:23:03.626Z,-2.09
2022-11-19T19:25:29.934Z,-2.23
2022-11-19T19:27:56.231Z,-2.14
2022-11-19T19:30:22.496Z,-2.20
2022-11-19T19:32:48.877Z,-2.24
2022-11-19T19:35:18.205Z,-2.31
2022-11-19T19:37:45.070Z,-2.23
2022-11-19T19:40:11.415Z,-2.27
2022-11-19T19:42:41.230Z,-2.19
2022-11-19T19:45:07.937Z,-2.22
2022-11-19T19:47:34.236Z,-2.32
2022-11-19T19:50:00.480Z,-2.27
2022-11-19T19:52:26.747Z,-2.33
2022-11-19T19:54:53.137Z,-2.28
2022-11-19T19:57:19.403Z,-2.34
2022-11-19T19:59:45.690Z,-2.27
2022-11-19T20:02:12.091Z,-2.27
2022-11-19T20:04:38.360Z,-2.31
2022-11-19T20:07:04.651Z,-2.21
2022-11-19T20:09:30.912Z,-2.26
2022-11-19T20:11:57.195Z,-2.32
2022-11-19T20:14:23.478Z,-2.16
2022-11-19T20:16:50.513Z,-2.04
2022-11-19T20:19:16.885Z,-1.96
2022-11-19T20:21:47.206Z,-1.98
2022-11-19T20:24:14.142Z,-2.15
2022-11-19T20:26:44.010Z,-2.01
2022-11-19T20:29:10.451Z,-1.94
2022-11-19T20:31:39.872Z,-1.94
2022-11-19T20:34:09.361Z,-2.00
2022-11-19T20:36:35.653Z,-1.97
2022-11-19T20:39:02.127Z,-1.93
2022-11-19T20:41:47.275Z,-1.88
2022-11-19T20:44:27.496Z,-1.91
2022-11-19T20:46:54.915Z,-1.93
2022-11-19T20:49:21.774Z,-1.98
2022-11-19T20:51:50.615Z,-1.95
2022-11-19T20:54:19.999Z,-1.98
2022-11-19T20:56:46.573Z,-1.98
2022-11-19T20:59:12.933Z,-2.02
2022-11-19T21:01:41.793Z,-2.05
2022-11-19T21:04:08.657Z,-2.08
2022-11-19T21:06:37.895Z,-2.22
2022-11-19T21:09:04.302Z,-2.17
2022-11-19T21:11:33.097Z,-2.23
2022-11-19T21:13:59.689Z,-2.25
2022-11-19T21:16:29.046Z,-2.28
2022-11-19T21:18:55.515Z,-2.22
2022-11-19T21:21:24.394Z,-2.29
2022-11-19T21:23:50.791Z,-2.33
2022-11-19T21:26:17.273Z,-2.33
2022-11-19T21:28:46.177Z,-2.31
2022-11-19T21:31:14.947Z,-2.45
2022-11-19T21:36:18.863Z,-2.53
2022-11-19T21:38:47.645Z,-2.52
2022-11-19T21:41:17.004Z,-2.53
2022-11-19T21:43:43.383Z,-2.59
2022-11-19T21:48:55.848Z,-2.70
2022-11-19T21:51:24.889Z,-2.69
2022-11-19T21:53:51.911Z,-2.71
2022-11-19T21:56:19.145Z,-2.76
2022-11-19T21:58:45.708Z,-2.73
2022-11-19T22:01:12.309Z,-2.77
2022-11-19T22:03:38.726Z,-2.64
2022-11-19T22:06:05.127Z,-2.59
2022-11-19T22:08:31.508Z,-2.61
2022-11-19T22:10:58.181Z,-2.66
2022-11-19T22:13:29.390Z,-2.62
2022-11-19T22:15:59.520Z,-2.59
2022-11-19T22:18:28.264Z,-2.63
2022-11-19T22:20:57.545Z,-2.61
2022-11-19T22:26:13.173Z,-2.67
2022-11-19T22:28:39.588Z,-2.66
2022-11-19T22:31:05.921Z,-2.68
2022-11-19T22:33:35.171Z,-2.60
2022-11-19T22:36:09.267Z,-2.80
2022-11-19T22:38:38.192Z,-2.75
2022-11-19T22:41:07.525Z,-2.89
2022-11-19T22:43:36.700Z,-2.90
2022-11-19T22:54:03.328Z,-3.02
2022-11-19T22:56:29.838Z,-3.03
2022-11-19T22:58:56.183Z,-3.13
2022-11-19T23:01:22.653Z,-3.05
2022-11-19T23:03:49.149Z,-3.12
2022-11-19T23:06:19.029Z,-3.17
2022-11-19T23:08:45.610Z,-3.17
2022-11-19T23:11:12.053Z,-3.16
2022-11-19T23:13:39.162Z,-3.19
2022-11-19T23:16:05.933Z,-3.23
2022-11-19T23:18:35.726Z,-3.22
2022-11-19T23:21:02.240Z,-3.34
2022-11-19T23:23:31.019Z,-3.21
2022-11-19T23:25:59.801Z,-3.29
2022-11-19T23:28:28.701Z,-3.31
2022-11-19T23:30:55.024Z,-3.31
2022-11-19T23:33:24.249Z,-3.40
2022-11-19T23:35:50.599Z,-3.27
2022-11-19T23:38:19.775Z,-3.33
2022-11-19T23:40:49.048Z,-3.32
2022-11-19T23:45:59.141Z,-3.42
2022-11-19T23:48:25.938Z,-3.33
2022-11-19T23:50:52.562Z,-3.35
2022-11-19T23:53:20.833Z,-3.33
2022-11-19T23:58:15.140Z,-3.36
